TEJ079 SBGR-SAEZ
Flight info
| Callsign | TEJ079 |
|---|---|
| Flight time | 2h 26m |
| Altitude | 40000 |
| Route | UBSOD UZ38 UMDEX DCT CXS DCT UMRUD UN741 PAPIX PAPIX7B |
| Aircraft | A35K/H-SDE2E3GHIJ3J4J5LM1ORWXY/LB1D1 |
Departure
| Time | 2026-04-30 19:57 |
|---|---|
| Airport | São Paulo/Guarulhos–Governor André Franco Montoro International Airport (SBGR) |
Arrival
| Time | 2026-04-30 22:23 |
|---|---|
| Airport | Ezeiza International Airport - Ministro Pistarini (SAEZ) |
| Time | Latitude | Longitude | Altitude | Speed | Heading |
|---|---|---|---|---|---|
| 2026-04-30 19:54 | -23.43038 | -46.47533 | 2478 ft | 18 kts | 253° |
| 2026-04-30 19:54 | -23.43076 | -46.47674 | 2478 ft | 20 kts | 253° |
| 2026-04-30 19:55 | -23.43117 | -46.47825 | 2479 ft | 21 kts | 253° |
| 2026-04-30 19:55 | -23.43161 | -46.47986 | 2479 ft | 23 kts | 253° |
| 2026-04-30 19:55 | -23.43206 | -46.48154 | 2480 ft | 24 kts | 253° |
| 2026-04-30 19:55 | -23.43264 | -46.48326 | 2481 ft | 24 kts | 233° |
| 2026-04-30 19:56 | -23.43406 | -46.48328 | 2480 ft | 22 kts | 123° |
| 2026-04-30 19:56 | -23.43374 | -46.48129 | 2480 ft | 49 kts | 73° |
| 2026-04-30 19:56 | -23.43210 | -46.47520 | 2477 ft | 116 kts | 73° |
| 2026-04-30 19:56 | -23.42925 | -46.46471 | 2482 ft | 171 kts | 72° |
| 2026-04-30 19:57 | -23.42525 | -46.45142 | 2905 ft | 189 kts | 75° |
| 2026-04-30 19:57 | -23.42141 | -46.43837 | 3798 ft | 181 kts | 75° |
| 2026-04-30 19:57 | -23.41747 | -46.42465 | 4237 ft | 202 kts | 76° |
| 2026-04-30 19:57 | -23.41303 | -46.40879 | 4466 ft | 234 kts | 76° |
| 2026-04-30 19:58 | -23.40794 | -46.39078 | 4816 ft | 261 kts | 75° |
| 2026-04-30 19:58 | -23.40265 | -46.37122 | 5375 ft | 276 kts | 78° |
| 2026-04-30 19:58 | -23.40326 | -46.35025 | 6108 ft | 282 kts | 104° |
| 2026-04-30 19:58 | -23.40942 | -46.32950 | 6777 ft | 293 kts | 110° |
| 2026-04-30 19:59 | -23.41643 | -46.30898 | 7649 ft | 292 kts | 110° |
| 2026-04-30 19:59 | -23.42351 | -46.28829 | 8434 ft | 292 kts | 110° |
| 2026-04-30 19:59 | -23.44877 | -46.25464 | 9113 ft | 295 kts | 158° |
| 2026-04-30 20:00 | -23.46886 | -46.25086 | 9489 ft | 297 kts | 187° |
| 2026-04-30 20:00 | -23.48270 | -46.25286 | 10060 ft | 298 kts | 191° |
| 2026-04-30 20:00 | -23.50338 | -46.25716 | 10753 ft | 310 kts | 193° |
| 2026-04-30 20:00 | -23.52497 | -46.26234 | 11086 ft | 332 kts | 197° |
| 2026-04-30 20:01 | -23.56205 | -46.29452 | 11695 ft | 363 kts | 243° |
| 2026-04-30 20:01 | -23.57004 | -46.32080 | 12282 ft | 368 kts | 258° |
| 2026-04-30 20:01 | -23.57663 | -46.35731 | 13158 ft | 375 kts | 258° |
| 2026-04-30 20:02 | -23.58522 | -46.40427 | 14160 ft | 381 kts | 258° |
| 2026-04-30 20:02 | -23.59065 | -46.43266 | 14705 ft | 384 kts | 258° |
| 2026-04-30 20:03 | -23.60182 | -46.48995 | 15858 ft | 389 kts | 258° |
| 2026-04-30 20:03 | -23.60752 | -46.51895 | 16120 ft | 391 kts | 258° |
| 2026-04-30 20:03 | -23.61264 | -46.54831 | 16468 ft | 396 kts | 261° |
| 2026-04-30 20:03 | -23.61677 | -46.57768 | 17107 ft | 397 kts | 262° |
| 2026-04-30 20:04 | -23.62092 | -46.60752 | 17709 ft | 399 kts | 262° |
| 2026-04-30 20:04 | -23.62567 | -46.63766 | 18212 ft | 405 kts | 258° |
| 2026-04-30 20:04 | -23.63524 | -46.66677 | 18666 ft | 411 kts | 244° |
| 2026-04-30 20:05 | -23.66518 | -46.72017 | 19731 ft | 414 kts | 239° |
| 2026-04-30 20:05 | -23.68053 | -46.74632 | 20269 ft | 415 kts | 239° |
| 2026-04-30 20:05 | -23.71701 | -46.79548 | 21372 ft | 422 kts | 224° |
| 2026-04-30 20:06 | -23.74099 | -46.81447 | 21918 ft | 427 kts | 214° |
| 2026-04-30 20:06 | -23.76668 | -46.83103 | 22429 ft | 431 kts | 213° |
| 2026-04-30 20:06 | -23.79275 | -46.84730 | 22970 ft | 433 kts | 213° |
| 2026-04-30 20:06 | -23.81904 | -46.86371 | 23482 ft | 436 kts | 213° |
| 2026-04-30 20:07 | -23.84536 | -46.88023 | 23954 ft | 438 kts | 213° |
| 2026-04-30 20:07 | -23.87188 | -46.89693 | 24400 ft | 440 kts | 214° |
| 2026-04-30 20:07 | -23.92529 | -46.93066 | 25357 ft | 445 kts | 214° |
| 2026-04-30 20:08 | -23.95189 | -46.94747 | 25903 ft | 448 kts | 214° |
| 2026-04-30 20:08 | -23.97893 | -46.96460 | 26449 ft | 450 kts | 214° |
| 2026-04-30 20:08 | -24.00607 | -46.98179 | 26993 ft | 453 kts | 214° |
| 2026-04-30 20:08 | -24.03345 | -46.99914 | 27541 ft | 456 kts | 214° |
| 2026-04-30 20:09 | -24.06094 | -47.01656 | 28092 ft | 458 kts | 214° |
| 2026-04-30 20:09 | -24.08865 | -47.03414 | 28640 ft | 461 kts | 214° |
| 2026-04-30 20:09 | -24.14455 | -47.06965 | 29657 ft | 467 kts | 214° |
| 2026-04-30 20:10 | -24.20126 | -47.10567 | 30557 ft | 473 kts | 215° |
| 2026-04-30 20:10 | -24.22977 | -47.12378 | 30978 ft | 475 kts | 215° |
| 2026-04-30 20:10 | -24.25815 | -47.14184 | 31360 ft | 477 kts | 215° |
| 2026-04-30 20:11 | -24.31491 | -47.17969 | 32319 ft | 475 kts | 217° |
| 2026-04-30 20:11 | -24.34268 | -47.19920 | 32947 ft | 471 kts | 217° |
| 2026-04-30 20:11 | -24.37018 | -47.21864 | 33571 ft | 468 kts | 217° |
| 2026-04-30 20:12 | -24.42451 | -47.25693 | 34539 ft | 464 kts | 217° |
| 2026-04-30 20:12 | -24.45173 | -47.27601 | 34978 ft | 462 kts | 217° |
| 2026-04-30 20:12 | -24.47894 | -47.29501 | 35409 ft | 461 kts | 217° |
| 2026-04-30 20:13 | -24.50597 | -47.31385 | 35839 ft | 460 kts | 218° |
| 2026-04-30 20:13 | -24.53294 | -47.33263 | 36275 ft | 457 kts | 218° |
| 2026-04-30 20:13 | -24.55982 | -47.35135 | 36704 ft | 455 kts | 218° |
| 2026-04-30 20:13 | -24.58620 | -47.36974 | 37085 ft | 454 kts | 218° |
| 2026-04-30 20:14 | -24.61290 | -47.38837 | 37478 ft | 453 kts | 218° |
| 2026-04-30 20:14 | -24.63949 | -47.40692 | 37864 ft | 451 kts | 218° |
| 2026-04-30 20:14 | -24.66599 | -47.42542 | 38240 ft | 450 kts | 218° |
| 2026-04-30 20:14 | -24.69204 | -47.44363 | 38598 ft | 448 kts | 219° |
| 2026-04-30 20:15 | -24.71834 | -47.46202 | 38903 ft | 446 kts | 219° |
| 2026-04-30 20:15 | -24.74457 | -47.48038 | 39156 ft | 445 kts | 219° |
| 2026-04-30 20:15 | -24.77084 | -47.49878 | 39393 ft | 445 kts | 219° |
| 2026-04-30 20:15 | -24.79699 | -47.51711 | 39627 ft | 444 kts | 219° |
| 2026-04-30 20:16 | -24.82273 | -47.53514 | 39843 ft | 443 kts | 219° |
| 2026-04-30 20:16 | -24.84876 | -47.55338 | 40060 ft | 443 kts | 219° |
| 2026-04-30 20:16 | -24.87479 | -47.57165 | 40087 ft | 443 kts | 219° |
| 2026-04-30 20:17 | -24.92690 | -47.60825 | 40091 ft | 443 kts | 219° |
| 2026-04-30 20:17 | -24.97863 | -47.64471 | 40093 ft | 443 kts | 219° |
| 2026-04-30 20:18 | -25.03065 | -47.68133 | 40094 ft | 444 kts | 219° |
| 2026-04-30 20:18 | -25.08277 | -47.71794 | 40094 ft | 444 kts | 219° |
| 2026-04-30 20:19 | -25.13458 | -47.75440 | 40102 ft | 443 kts | 219° |
| 2026-04-30 20:19 | -25.18651 | -47.79102 | 40094 ft | 443 kts | 219° |
| 2026-04-30 20:20 | -25.23839 | -47.82766 | 40097 ft | 443 kts | 220° |
| 2026-04-30 20:20 | -25.29042 | -47.86446 | 40097 ft | 443 kts | 220° |
| 2026-04-30 20:21 | -25.34237 | -47.90125 | 40104 ft | 443 kts | 220° |
| 2026-04-30 20:21 | -25.39404 | -47.93787 | 40103 ft | 443 kts | 220° |
| 2026-04-30 20:22 | -25.44594 | -47.97468 | 40110 ft | 443 kts | 220° |
| 2026-04-30 20:22 | -25.49756 | -48.01137 | 40100 ft | 442 kts | 220° |
| 2026-04-30 20:23 | -25.54949 | -48.04830 | 40102 ft | 443 kts | 220° |
| 2026-04-30 20:23 | -25.60137 | -48.08524 | 40104 ft | 442 kts | 220° |
| 2026-04-30 20:24 | -25.65288 | -48.12197 | 40104 ft | 442 kts | 220° |
| 2026-04-30 20:24 | -25.70471 | -48.15887 | 40104 ft | 440 kts | 220° |
| 2026-04-30 20:25 | -25.78221 | -48.21392 | 40100 ft | 442 kts | 220° |
| 2026-04-30 20:26 | -25.85973 | -48.26921 | 40107 ft | 442 kts | 221° |
| 2026-04-30 20:26 | -25.93736 | -48.32488 | 40105 ft | 444 kts | 220° |
| 2026-04-30 20:27 | -26.04092 | -48.39868 | 40121 ft | 443 kts | 220° |
| 2026-04-30 20:28 | -26.14417 | -48.47272 | 40110 ft | 441 kts | 220° |
| 2026-04-30 20:30 | -26.27325 | -48.56573 | 40108 ft | 444 kts | 220° |
| 2026-04-30 20:31 | -26.42776 | -48.67736 | 40116 ft | 440 kts | 221° |
| 2026-04-30 20:32 | -26.55561 | -48.77088 | 40117 ft | 440 kts | 221° |
| 2026-04-30 20:33 | -26.63200 | -48.82736 | 40121 ft | 440 kts | 221° |
| 2026-04-30 20:34 | -26.70865 | -48.88387 | 40124 ft | 440 kts | 221° |
| 2026-04-30 20:35 | -26.78545 | -48.93979 | 40120 ft | 440 kts | 221° |
| 2026-04-30 20:35 | -26.86252 | -48.99608 | 40120 ft | 439 kts | 221° |
| 2026-04-30 20:36 | -26.91352 | -49.03345 | 40122 ft | 439 kts | 221° |
| 2026-04-30 20:37 | -26.99012 | -49.08971 | 40127 ft | 440 kts | 221° |
| 2026-04-30 20:37 | -27.04150 | -49.12742 | 40127 ft | 440 kts | 221° |
| 2026-04-30 20:38 | -27.09250 | -49.16491 | 40127 ft | 440 kts | 221° |
| 2026-04-30 20:38 | -27.14371 | -49.20246 | 40132 ft | 439 kts | 221° |
| 2026-04-30 20:39 | -27.22040 | -49.25917 | 40130 ft | 440 kts | 221° |
| 2026-04-30 20:40 | -27.29714 | -49.31587 | 40148 ft | 440 kts | 222° |
| 2026-04-30 20:40 | -27.34837 | -49.35386 | 40134 ft | 442 kts | 222° |
| 2026-04-30 20:41 | -27.42470 | -49.41025 | 40139 ft | 438 kts | 221° |
| 2026-04-30 20:41 | -27.47568 | -49.44780 | 40131 ft | 439 kts | 222° |
| 2026-04-30 20:42 | -27.52663 | -49.48597 | 40138 ft | 440 kts | 222° |
| 2026-04-30 20:43 | -27.59732 | -49.54936 | 40156 ft | 431 kts | 229° |
| 2026-04-30 20:43 | -27.64217 | -49.59416 | 40141 ft | 431 kts | 230° |
| 2026-04-30 20:44 | -27.70880 | -49.66133 | 40144 ft | 427 kts | 229° |
| 2026-04-30 20:45 | -27.79817 | -49.75129 | 40155 ft | 432 kts | 230° |
| 2026-04-30 20:45 | -27.84275 | -49.79627 | 40129 ft | 431 kts | 230° |
| 2026-04-30 20:46 | -27.93182 | -49.88623 | 40121 ft | 425 kts | 230° |
| 2026-04-30 20:47 | -27.99831 | -49.95347 | 40149 ft | 427 kts | 230° |
| 2026-04-30 20:48 | -28.06472 | -50.02075 | 40141 ft | 427 kts | 230° |
| 2026-04-30 20:48 | -28.10156 | -50.05804 | 40135 ft | 427 kts | 230° |
| 2026-04-30 20:49 | -28.14552 | -50.10285 | 40142 ft | 425 kts | 230° |
| 2026-04-30 20:50 | -28.21166 | -50.17039 | 40131 ft | 429 kts | 230° |
| 2026-04-30 20:50 | -28.25588 | -50.21558 | 40135 ft | 428 kts | 230° |
| 2026-04-30 20:51 | -28.30021 | -50.26072 | 40143 ft | 427 kts | 230° |
| 2026-04-30 20:51 | -28.36612 | -50.32796 | 40130 ft | 426 kts | 230° |
| 2026-04-30 20:52 | -28.41017 | -50.37308 | 40123 ft | 425 kts | 230° |
| 2026-04-30 20:53 | -28.47595 | -50.44049 | 40122 ft | 425 kts | 230° |
| 2026-04-30 20:53 | -28.52004 | -50.48572 | 40126 ft | 426 kts | 230° |
| 2026-04-30 20:54 | -28.58588 | -50.55342 | 40123 ft | 426 kts | 230° |
| 2026-04-30 20:55 | -28.65198 | -50.62124 | 40143 ft | 425 kts | 230° |
| 2026-04-30 20:55 | -28.69542 | -50.66605 | 40117 ft | 425 kts | 230° |
| 2026-04-30 20:56 | -28.76137 | -50.73438 | 40122 ft | 425 kts | 230° |
| 2026-04-30 20:57 | -28.82705 | -50.80247 | 40121 ft | 425 kts | 231° |
| 2026-04-30 20:57 | -28.87077 | -50.84776 | 40121 ft | 429 kts | 230° |
| 2026-04-30 20:58 | -28.93695 | -50.91613 | 40120 ft | 424 kts | 231° |
| 2026-04-30 20:58 | -28.98033 | -50.96144 | 40120 ft | 426 kts | 231° |
| 2026-04-30 20:59 | -29.04630 | -51.03010 | 40127 ft | 426 kts | 231° |
| 2026-04-30 21:00 | -29.13324 | -51.12075 | 40117 ft | 424 kts | 231° |
| 2026-04-30 21:01 | -29.19794 | -51.19054 | 40111 ft | 421 kts | 237° |
| 2026-04-30 21:02 | -29.25250 | -51.26827 | 40111 ft | 415 kts | 239° |
| 2026-04-30 21:02 | -29.28768 | -51.32061 | 40108 ft | 414 kts | 240° |
| 2026-04-30 21:03 | -29.32263 | -51.37269 | 40112 ft | 414 kts | 240° |
| 2026-04-30 21:03 | -29.35804 | -51.42541 | 40108 ft | 415 kts | 240° |
| 2026-04-30 21:04 | -29.39318 | -51.47759 | 40130 ft | 415 kts | 240° |
| 2026-04-30 21:04 | -29.44613 | -51.55625 | 40101 ft | 414 kts | 240° |
| 2026-04-30 21:05 | -29.48120 | -51.60850 | 40099 ft | 415 kts | 240° |
| 2026-04-30 21:05 | -29.51644 | -51.66109 | 40098 ft | 415 kts | 240° |
| 2026-04-30 21:06 | -29.55163 | -51.71373 | 40100 ft | 415 kts | 240° |
| 2026-04-30 21:06 | -29.58661 | -51.76606 | 40097 ft | 415 kts | 240° |
| 2026-04-30 21:07 | -29.62182 | -51.81874 | 40097 ft | 415 kts | 240° |
| 2026-04-30 21:07 | -29.65691 | -51.87142 | 40089 ft | 414 kts | 240° |
| 2026-04-30 21:08 | -29.69197 | -51.92408 | 40090 ft | 415 kts | 240° |
| 2026-04-30 21:08 | -29.72690 | -51.97659 | 40087 ft | 415 kts | 240° |
| 2026-04-30 21:09 | -29.76216 | -52.02968 | 40092 ft | 416 kts | 240° |
| 2026-04-30 21:09 | -29.79704 | -52.08232 | 40095 ft | 416 kts | 240° |
| 2026-04-30 21:10 | -29.83220 | -52.13539 | 40089 ft | 415 kts | 240° |
| 2026-04-30 21:10 | -29.86711 | -52.18825 | 40093 ft | 415 kts | 240° |
| 2026-04-30 21:11 | -29.90230 | -52.24140 | 40095 ft | 419 kts | 240° |
| 2026-04-30 21:11 | -29.93757 | -52.29448 | 40086 ft | 417 kts | 240° |
| 2026-04-30 21:12 | -29.97248 | -52.34746 | 40080 ft | 417 kts | 240° |
| 2026-04-30 21:12 | -30.00753 | -52.40062 | 40082 ft | 415 kts | 240° |
| 2026-04-30 21:13 | -30.04241 | -52.45384 | 40083 ft | 416 kts | 240° |
| 2026-04-30 21:13 | -30.07717 | -52.50680 | 40078 ft | 416 kts | 241° |
| 2026-04-30 21:14 | -30.11179 | -52.56013 | 40089 ft | 415 kts | 240° |
| 2026-04-30 21:14 | -30.14667 | -52.61338 | 40084 ft | 417 kts | 240° |
| 2026-04-30 21:15 | -30.18196 | -52.66685 | 40086 ft | 419 kts | 240° |
| 2026-04-30 21:15 | -30.21699 | -52.72034 | 40088 ft | 420 kts | 240° |
| 2026-04-30 21:16 | -30.25204 | -52.77439 | 40089 ft | 419 kts | 241° |
| 2026-04-30 21:16 | -30.28685 | -52.82806 | 40082 ft | 416 kts | 240° |
| 2026-04-30 21:17 | -30.32194 | -52.88160 | 40091 ft | 420 kts | 241° |
| 2026-04-30 21:17 | -30.35689 | -52.93568 | 40076 ft | 424 kts | 240° |
| 2026-04-30 21:18 | -30.39242 | -52.99041 | 40080 ft | 423 kts | 240° |
| 2026-04-30 21:18 | -30.42767 | -53.04461 | 40078 ft | 423 kts | 241° |
| 2026-04-30 21:19 | -30.46306 | -53.09938 | 40075 ft | 422 kts | 240° |
| 2026-04-30 21:19 | -30.49835 | -53.15393 | 40075 ft | 421 kts | 240° |
| 2026-04-30 21:20 | -30.53292 | -53.20774 | 40080 ft | 420 kts | 240° |
| 2026-04-30 21:20 | -30.56778 | -53.26209 | 40085 ft | 420 kts | 240° |
| 2026-04-30 21:21 | -30.60276 | -53.31656 | 40078 ft | 421 kts | 240° |
| 2026-04-30 21:22 | -30.65530 | -53.39838 | 40075 ft | 421 kts | 240° |
| 2026-04-30 21:23 | -30.72502 | -53.50716 | 40075 ft | 420 kts | 240° |
| 2026-04-30 21:23 | -30.77737 | -53.58899 | 40074 ft | 421 kts | 241° |
| 2026-04-30 21:24 | -30.81236 | -53.64384 | 40072 ft | 421 kts | 241° |
| 2026-04-30 21:24 | -30.84723 | -53.69860 | 40073 ft | 420 kts | 240° |
| 2026-04-30 21:25 | -30.89931 | -53.78052 | 40075 ft | 421 kts | 241° |
| 2026-04-30 21:26 | -30.95153 | -53.86288 | 40072 ft | 421 kts | 241° |
| 2026-04-30 21:27 | -31.00356 | -53.94500 | 40071 ft | 421 kts | 241° |
| 2026-04-30 21:27 | -31.03842 | -54.00010 | 40088 ft | 421 kts | 241° |
| 2026-04-30 21:28 | -31.09040 | -54.08247 | 40065 ft | 422 kts | 241° |
| 2026-04-30 21:29 | -31.14263 | -54.16542 | 40056 ft | 422 kts | 241° |
| 2026-04-30 21:30 | -31.22942 | -54.30362 | 40059 ft | 422 kts | 241° |
| 2026-04-30 21:31 | -31.31619 | -54.44228 | 40053 ft | 423 kts | 241° |
| 2026-04-30 21:32 | -31.36807 | -54.52542 | 40060 ft | 423 kts | 241° |
| 2026-04-30 21:32 | -31.40287 | -54.58128 | 40048 ft | 424 kts | 241° |
| 2026-04-30 21:33 | -31.45886 | -54.66170 | 40049 ft | 433 kts | 232° |
| 2026-04-30 21:34 | -31.50282 | -54.71043 | 40046 ft | 435 kts | 231° |
| 2026-04-30 21:34 | -31.56989 | -54.78223 | 40045 ft | 436 kts | 231° |
| 2026-04-30 21:35 | -31.61472 | -54.83036 | 40045 ft | 436 kts | 231° |
| 2026-04-30 21:35 | -31.65941 | -54.87860 | 40043 ft | 436 kts | 231° |
| 2026-04-30 21:36 | -31.70379 | -54.92662 | 40045 ft | 436 kts | 231° |
| 2026-04-30 21:37 | -31.78572 | -55.01544 | 40052 ft | 436 kts | 231° |
| 2026-04-30 21:37 | -31.83009 | -55.06364 | 40037 ft | 436 kts | 231° |
| 2026-04-30 21:38 | -31.87474 | -55.11220 | 40039 ft | 436 kts | 231° |
| 2026-04-30 21:38 | -31.91937 | -55.16079 | 40039 ft | 436 kts | 231° |
| 2026-04-30 21:39 | -31.96369 | -55.20913 | 40031 ft | 436 kts | 231° |
| 2026-04-30 21:39 | -32.00839 | -55.25796 | 40033 ft | 436 kts | 231° |
| 2026-04-30 21:40 | -32.05267 | -55.30639 | 40032 ft | 437 kts | 231° |
| 2026-04-30 21:40 | -32.09725 | -55.35521 | 40025 ft | 437 kts | 231° |
| 2026-04-30 21:41 | -32.14188 | -55.40415 | 40027 ft | 437 kts | 231° |
| 2026-04-30 21:41 | -32.18613 | -55.45274 | 40026 ft | 437 kts | 231° |
| 2026-04-30 21:42 | -32.23066 | -55.50171 | 40024 ft | 437 kts | 231° |
| 2026-04-30 21:42 | -32.27520 | -55.55077 | 40024 ft | 437 kts | 231° |
| 2026-04-30 21:43 | -32.31948 | -55.59960 | 40044 ft | 437 kts | 231° |
| 2026-04-30 21:43 | -32.36411 | -55.64889 | 40022 ft | 437 kts | 231° |
| 2026-04-30 21:44 | -32.40839 | -55.69786 | 40020 ft | 437 kts | 231° |
| 2026-04-30 21:44 | -32.45290 | -55.74714 | 40021 ft | 437 kts | 231° |
| 2026-04-30 21:45 | -32.49742 | -55.79652 | 40025 ft | 437 kts | 231° |
| 2026-04-30 21:45 | -32.54159 | -55.84557 | 40017 ft | 438 kts | 231° |
| 2026-04-30 21:46 | -32.58617 | -55.89516 | 40017 ft | 438 kts | 231° |
| 2026-04-30 21:46 | -32.63044 | -55.94447 | 40018 ft | 438 kts | 231° |
| 2026-04-30 21:47 | -32.67496 | -55.99414 | 40031 ft | 438 kts | 231° |
| 2026-04-30 21:47 | -32.71935 | -56.04373 | 40014 ft | 438 kts | 231° |
| 2026-04-30 21:48 | -32.76381 | -56.09345 | 40019 ft | 438 kts | 231° |
| 2026-04-30 21:48 | -32.80794 | -56.14288 | 40012 ft | 438 kts | 231° |
| 2026-04-30 21:49 | -32.85231 | -56.19266 | 40015 ft | 438 kts | 231° |
| 2026-04-30 21:49 | -32.89665 | -56.24248 | 40016 ft | 438 kts | 231° |
| 2026-04-30 21:50 | -32.94075 | -56.29210 | 40016 ft | 438 kts | 231° |
| 2026-04-30 21:50 | -32.98512 | -56.34209 | 40016 ft | 438 kts | 231° |
| 2026-04-30 21:51 | -33.02937 | -56.39218 | 40013 ft | 438 kts | 231° |
| 2026-04-30 21:51 | -33.07356 | -56.44238 | 40003 ft | 439 kts | 231° |
| 2026-04-30 21:52 | -33.11750 | -56.49235 | 40021 ft | 439 kts | 231° |
| 2026-04-30 21:52 | -33.16176 | -56.54274 | 40018 ft | 439 kts | 231° |
| 2026-04-30 21:53 | -33.20593 | -56.59311 | 40016 ft | 439 kts | 231° |
| 2026-04-30 21:53 | -33.24987 | -56.64319 | 40017 ft | 439 kts | 231° |
| 2026-04-30 21:54 | -33.29411 | -56.69366 | 40013 ft | 439 kts | 231° |
| 2026-04-30 21:54 | -33.33835 | -56.74423 | 40015 ft | 439 kts | 231° |
| 2026-04-30 21:55 | -33.38249 | -56.79477 | 40009 ft | 439 kts | 231° |
| 2026-04-30 21:55 | -33.42662 | -56.84539 | 40020 ft | 439 kts | 231° |
| 2026-04-30 21:56 | -33.47052 | -56.89582 | 39999 ft | 440 kts | 231° |
| 2026-04-30 21:56 | -33.51473 | -56.94668 | 39999 ft | 440 kts | 231° |
| 2026-04-30 21:57 | -33.55870 | -56.99733 | 39996 ft | 440 kts | 231° |
| 2026-04-30 21:57 | -33.60288 | -57.04830 | 39996 ft | 440 kts | 231° |
| 2026-04-30 21:58 | -33.64706 | -57.09934 | 39998 ft | 440 kts | 231° |
| 2026-04-30 21:58 | -33.69091 | -57.15009 | 40009 ft | 440 kts | 231° |
| 2026-04-30 21:59 | -33.73518 | -57.20139 | 39996 ft | 441 kts | 231° |
| 2026-04-30 22:00 | -33.80051 | -57.27712 | 39206 ft | 428 kts | 231° |
| 2026-04-30 22:00 | -33.84342 | -57.32706 | 37891 ft | 428 kts | 231° |
| 2026-04-30 22:00 | -33.86484 | -57.35201 | 37284 ft | 426 kts | 231° |
| 2026-04-30 22:01 | -33.88610 | -57.37680 | 36658 ft | 424 kts | 231° |
| 2026-04-30 22:01 | -33.90713 | -57.40132 | 36043 ft | 424 kts | 231° |
| 2026-04-30 22:01 | -33.92840 | -57.42615 | 35410 ft | 426 kts | 231° |
| 2026-04-30 22:01 | -33.94983 | -57.45124 | 34695 ft | 430 kts | 231° |
| 2026-04-30 22:02 | -33.97139 | -57.47651 | 33955 ft | 434 kts | 231° |
| 2026-04-30 22:02 | -33.99290 | -57.50172 | 33148 ft | 438 kts | 231° |
| 2026-04-30 22:02 | -34.01486 | -57.52746 | 32360 ft | 442 kts | 230° |
| 2026-04-30 22:02 | -34.03702 | -57.55342 | 31577 ft | 445 kts | 231° |
| 2026-04-30 22:03 | -34.05939 | -57.57965 | 30764 ft | 448 kts | 230° |
| 2026-04-30 22:03 | -34.08049 | -57.60694 | 29970 ft | 444 kts | 236° |
| 2026-04-30 22:03 | -34.09892 | -57.63704 | 28748 ft | 448 kts | 242° |
| 2026-04-30 22:03 | -34.11601 | -57.66833 | 27619 ft | 453 kts | 242° |
| 2026-04-30 22:04 | -34.13302 | -57.70009 | 26444 ft | 453 kts | 242° |
| 2026-04-30 22:04 | -34.15004 | -57.73204 | 25735 ft | 450 kts | 242° |
| 2026-04-30 22:04 | -34.18348 | -57.79482 | 24531 ft | 438 kts | 243° |
| 2026-04-30 22:05 | -34.19988 | -57.82569 | 23936 ft | 433 kts | 243° |
| 2026-04-30 22:05 | -34.21605 | -57.85616 | 23327 ft | 428 kts | 243° |
| 2026-04-30 22:05 | -34.23203 | -57.88632 | 22683 ft | 422 kts | 243° |
| 2026-04-30 22:05 | -34.24756 | -57.91560 | 22105 ft | 415 kts | 243° |
| 2026-04-30 22:06 | -34.26306 | -57.94489 | 21547 ft | 409 kts | 243° |
| 2026-04-30 22:06 | -34.29332 | -58.00212 | 20394 ft | 397 kts | 243° |
| 2026-04-30 22:06 | -34.30813 | -58.03018 | 19821 ft | 393 kts | 243° |
| 2026-04-30 22:07 | -34.32259 | -58.05759 | 19265 ft | 388 kts | 243° |
| 2026-04-30 22:07 | -34.33706 | -58.08506 | 18690 ft | 384 kts | 242° |
| 2026-04-30 22:07 | -34.35139 | -58.11228 | 18098 ft | 381 kts | 242° |
| 2026-04-30 22:07 | -34.36561 | -58.13929 | 17492 ft | 377 kts | 242° |
| 2026-04-30 22:08 | -34.37946 | -58.16562 | 16904 ft | 373 kts | 242° |
| 2026-04-30 22:08 | -34.39331 | -58.19199 | 16362 ft | 370 kts | 242° |
| 2026-04-30 22:08 | -34.40710 | -58.21826 | 15784 ft | 368 kts | 242° |
| 2026-04-30 22:08 | -34.42083 | -58.24442 | 15213 ft | 367 kts | 242° |
| 2026-04-30 22:09 | -34.43447 | -58.27046 | 14636 ft | 365 kts | 242° |
| 2026-04-30 22:09 | -34.44810 | -58.29646 | 14075 ft | 363 kts | 241° |
| 2026-04-30 22:09 | -34.46147 | -58.32198 | 13438 ft | 361 kts | 241° |
| 2026-04-30 22:09 | -34.47494 | -58.34770 | 12836 ft | 360 kts | 241° |
| 2026-04-30 22:10 | -34.48832 | -58.37328 | 12262 ft | 359 kts | 241° |
| 2026-04-30 22:10 | -34.50166 | -58.39881 | 11690 ft | 358 kts | 241° |
| 2026-04-30 22:10 | -34.51499 | -58.42435 | 11205 ft | 352 kts | 242° |
| 2026-04-30 22:10 | -34.52753 | -58.44821 | 11096 ft | 318 kts | 242° |
| 2026-04-30 22:11 | -34.54988 | -58.49091 | 10901 ft | 288 kts | 243° |
| 2026-04-30 22:11 | -34.56035 | -58.51103 | 10781 ft | 275 kts | 243° |
| 2026-04-30 22:11 | -34.57043 | -58.53044 | 10629 ft | 270 kts | 243° |
| 2026-04-30 22:12 | -34.58044 | -58.54980 | 10505 ft | 270 kts | 243° |
| 2026-04-30 22:12 | -34.59046 | -58.56915 | 10380 ft | 270 kts | 243° |
| 2026-04-30 22:12 | -34.60034 | -58.58822 | 10088 ft | 271 kts | 243° |
| 2026-04-30 22:12 | -34.61051 | -58.60786 | 9725 ft | 282 kts | 243° |
| 2026-04-30 22:13 | -34.62122 | -58.62850 | 9343 ft | 290 kts | 243° |
| 2026-04-30 22:13 | -34.63195 | -58.64898 | 9009 ft | 290 kts | 242° |
| 2026-04-30 22:13 | -34.64285 | -58.66968 | 8690 ft | 289 kts | 242° |
| 2026-04-30 22:13 | -34.65354 | -58.69038 | 8407 ft | 288 kts | 243° |
| 2026-04-30 22:14 | -34.66414 | -58.71108 | 8138 ft | 287 kts | 242° |
| 2026-04-30 22:14 | -34.67463 | -58.73141 | 7816 ft | 287 kts | 242° |
| 2026-04-30 22:14 | -34.68523 | -58.75195 | 7480 ft | 286 kts | 242° |
| 2026-04-30 22:14 | -34.69584 | -58.77249 | 7146 ft | 285 kts | 242° |
| 2026-04-30 22:15 | -34.70639 | -58.79295 | 6808 ft | 285 kts | 242° |
| 2026-04-30 22:15 | -34.71690 | -58.81329 | 6468 ft | 284 kts | 242° |
| 2026-04-30 22:15 | -34.72731 | -58.83346 | 6233 ft | 275 kts | 242° |
| 2026-04-30 22:15 | -34.73728 | -58.85271 | 6121 ft | 262 kts | 242° |
| 2026-04-30 22:16 | -34.74668 | -58.87084 | 5998 ft | 251 kts | 242° |
| 2026-04-30 22:16 | -34.75593 | -58.88878 | 5717 ft | 249 kts | 242° |
| 2026-04-30 22:17 | -34.79962 | -58.91244 | 4772 ft | 257 kts | 155° |
| 2026-04-30 22:17 | -34.81312 | -58.89885 | 4482 ft | 251 kts | 120° |
| 2026-04-30 22:17 | -34.81627 | -58.85968 | 3967 ft | 228 kts | 70° |
| 2026-04-30 22:18 | -34.81171 | -58.84176 | 3913 ft | 213 kts | 65° |
| 2026-04-30 22:18 | -34.80013 | -58.80974 | 3795 ft | 206 kts | 59° |
| 2026-04-30 22:19 | -34.78865 | -58.77808 | 3500 ft | 206 kts | 65° |
| 2026-04-30 22:19 | -34.78434 | -58.76138 | 3333 ft | 206 kts | 71° |
| 2026-04-30 22:19 | -34.78437 | -58.72652 | 3048 ft | 207 kts | 102° |
| 2026-04-30 22:20 | -34.78853 | -58.71007 | 2846 ft | 201 kts | 103° |
| 2026-04-30 22:20 | -34.79682 | -58.67940 | 2334 ft | 188 kts | 101° |
| 2026-04-30 22:20 | -34.79873 | -58.66418 | 2085 ft | 179 kts | 92° |
| 2026-04-30 22:21 | -34.80160 | -58.64966 | 1825 ft | 173 kts | 101° |
| 2026-04-30 22:21 | -34.80471 | -58.63594 | 1526 ft | 168 kts | 98° |
| 2026-04-30 22:21 | -34.80697 | -58.62215 | 1210 ft | 163 kts | 95° |
| 2026-04-30 22:21 | -34.80905 | -58.60904 | 986 ft | 152 kts | 97° |
| 2026-04-30 22:22 | -34.81128 | -58.59684 | 795 ft | 143 kts | 99° |
| 2026-04-30 22:22 | -34.81333 | -58.58535 | 627 ft | 135 kts | 95° |
| 2026-04-30 22:22 | -34.81533 | -58.57404 | 442 ft | 137 kts | 99° |
| 2026-04-30 22:22 | -34.81737 | -58.56276 | 263 ft | 136 kts | 100° |
| 2026-04-30 22:23 | -34.81873 | -58.55529 | 156 ft | 137 kts | 100° |
| 2026-04-30 22:23 | -34.82130 | -58.54089 | 90 ft | 121 kts | 100° |
| 2026-04-30 22:23 | -34.82240 | -58.53450 | 67 ft | 103 kts | 103° |
| 2026-04-30 22:23 | -34.82329 | -58.52935 | 70 ft | 11 kts | 75° |
| 2026-04-30 22:24 | -34.82289 | -58.52904 | 73 ft | 11 kts | 7° |
| 2026-04-30 22:24 | -34.82202 | -58.52920 | 63 ft | 14 kts | 345° |
| 2026-04-30 22:24 | -34.82100 | -58.52954 | 66 ft | 17 kts | 343° |
| 2026-04-30 22:24 | -34.82020 | -58.53056 | 68 ft | 18 kts | 289° |
| 2026-04-30 22:25 | -34.81986 | -58.53214 | 69 ft | 20 kts | 284° |
| 2026-04-30 22:25 | -34.81950 | -58.53391 | 67 ft | 23 kts | 284° |
| 2026-04-30 22:25 | -34.81907 | -58.53586 | 65 ft | 25 kts | 293° |
| 2026-04-30 22:25 | -34.81766 | -58.53709 | 64 ft | 27 kts | 334° |
| 2026-04-30 22:26 | -34.81796 | -58.54110 | 68 ft | 28 kts | 271° |
| 2026-04-30 22:26 | -34.81773 | -58.54263 | 68 ft | 17 kts | 280° |
| 2026-04-30 22:26 | -34.81758 | -58.54415 | 71 ft | 20 kts | 275° |
| 2026-04-30 22:27 | -34.81684 | -58.54498 | 68 ft | 17 kts | 14° |
| 2026-04-30 22:27 | -34.81631 | -58.54480 | 73 ft | 0 kts | 13° |
| 2026-04-30 22:27 | -34.81628 | -58.54479 | 76 ft | 0 kts | 13° |